sensor_id;sensor_type;location;lat;lon;timestamp;pressure;altitude;pressure_sealevel;temperature;humidity
27984;BME280;15317;50.360;8.726;2022-10-16T00:03:49;99176.13;;;13.98;100.00
27984;BME280;15317;50.360;8.726;2022-10-16T00:07:51;99185.03;;;13.92;100.00
27984;BME280;15317;50.360;8.726;2022-10-16T00:11:54;99190.41;;;13.85;100.00
27984;BME280;15317;50.360;8.726;2022-10-16T00:15:58;99188.84;;;13.76;100.00
27984;BME280;15317;50.360;8.726;2022-10-16T00:20:00;99185.59;;;13.73;100.00
27984;BME280;15317;50.360;8.726;2022-10-16T00:24:05;99177.31;;;13.66;100.00
27984;BME280;15317;50.360;8.726;2022-10-16T00:28:10;99180.72;;;13.68;100.00
27984;BME280;15317;50.360;8.726;2022-10-16T00:32:12;99169.13;;;13.66;100.00
27984;BME280;15317;50.360;8.726;2022-10-16T00:36:17;99190.34;;;13.64;100.00
27984;BME280;15317;50.360;8.726;2022-10-16T00:40:19;99189.66;;;13.62;100.00
27984;BME280;15317;50.360;8.726;2022-10-16T00:44:48;99185.22;;;13.61;100.00
27984;BME280;15317;50.360;8.726;2022-10-16T00:48:56;99181.19;;;13.57;100.00
27984;BME280;15317;50.360;8.726;2022-10-16T00:53:00;99185.81;;;13.57;100.00
27984;BME280;15317;50.360;8.726;2022-10-16T00:57:05;99194.16;;;13.55;100.00
27984;BME280;15317;50.360;8.726;2022-10-16T01:01:08;99190.09;;;13.51;100.00
27984;BME280;15317;50.360;8.726;2022-10-16T01:05:11;99188.59;;;13.49;100.00
27984;BME280;15317;50.360;8.726;2022-10-16T01:09:16;99192.00;;;13.51;100.00
27984;BME280;15317;50.360;8.726;2022-10-16T01:13:22;99201.00;;;13.51;100.00
27984;BME280;15317;50.360;8.726;2022-10-16T01:17:30;99220.09;;;13.51;100.00
27984;BME280;15317;50.360;8.726;2022-10-16T01:21:39;99209.19;;;13.51;100.00
27984;BME280;15317;50.360;8.726;2022-10-16T01:25:55;99210.91;;;13.52;100.00
27984;BME280;15317;50.360;8.726;2022-10-16T01:30:07;99219.41;;;13.57;100.00
27984;BME280;15317;50.360;8.726;2022-10-16T01:34:15;99228.97;;;13.53;100.00
27984;BME280;15317;50.360;8.726;2022-10-16T01:38:21;99200.28;;;13.57;100.00
27984;BME280;15317;50.360;8.726;2022-10-16T01:42:29;99209.34;;;13.58;100.00
27984;BME280;15317;50.360;8.726;2022-10-16T01:46:37;99211.84;;;13.59;100.00
27984;BME280;15317;50.360;8.726;2022-10-16T01:50:43;99226.16;;;13.61;100.00
27984;BME280;15317;50.360;8.726;2022-10-16T01:54:47;99216.56;;;13.65;100.00
27984;BME280;15317;50.360;8.726;2022-10-16T01:58:54;99203.59;;;13.67;100.00
27984;BME280;15317;50.360;8.726;2022-10-16T02:03:01;99215.84;;;13.71;100.00
27984;BME280;15317;50.360;8.726;2022-10-16T02:07:05;99216.31;;;13.75;100.00
27984;BME280;15317;50.360;8.726;2022-10-16T02:11:07;99221.00;;;13.81;100.00
27984;BME280;15317;50.360;8.726;2022-10-16T02:15:09;99230.72;;;13.83;100.00
27984;BME280;15317;50.360;8.726;2022-10-16T02:19:15;99225.72;;;13.87;100.00
27984;BME280;15317;50.360;8.726;2022-10-16T02:23:24;99242.59;;;13.91;100.00
27984;BME280;15317;50.360;8.726;2022-10-16T02:27:33;99226.47;;;13.96;100.00
27984;BME280;15317;50.360;8.726;2022-10-16T02:31:41;99231.94;;;13.96;100.00
27984;BME280;15317;50.360;8.726;2022-10-16T02:35:47;99234.69;;;13.96;100.00
27984;BME280;15317;50.360;8.726;2022-10-16T02:39:51;99216.88;;;14.00;100.00
27984;BME280;15317;50.360;8.726;2022-10-16T02:43:54;99225.06;;;14.00;100.00
27984;BME280;15317;50.360;8.726;2022-10-16T02:47:56;99230.53;;;14.00;100.00
27984;BME280;15317;50.360;8.726;2022-10-16T02:52:00;99231.88;;;14.04;100.00
27984;BME280;15317;50.360;8.726;2022-10-16T02:56:02;99224.50;;;14.04;100.00
27984;BME280;15317;50.360;8.726;2022-10-16T03:00:05;99227.72;;;14.08;100.00
27984;BME280;15317;50.360;8.726;2022-10-16T03:04:08;99255.88;;;14.08;100.00
27984;BME280;15317;50.360;8.726;2022-10-16T03:08:12;99244.38;;;14.13;100.00
27984;BME280;15317;50.360;8.726;2022-10-16T03:12:14;99237.22;;;14.12;100.00
27984;BME280;15317;50.360;8.726;2022-10-16T03:16:16;99260.13;;;14.11;100.00
27984;BME280;15317;50.360;8.726;2022-10-16T03:20:18;99281.97;;;14.11;100.00
27984;BME280;15317;50.360;8.726;2022-10-16T03:24:21;99290.63;;;14.14;100.00
27984;BME280;15317;50.360;8.726;2022-10-16T03:28:23;99282.81;;;14.11;100.00
27984;BME280;15317;50.360;8.726;2022-10-16T03:32:25;99270.84;;;13.98;100.00
27984;BME280;15317;50.360;8.726;2022-10-16T03:36:29;99284.28;;;13.84;100.00
27984;BME280;15317;50.360;8.726;2022-10-16T03:40:32;99261.28;;;13.64;100.00
27984;BME280;15317;50.360;8.726;2022-10-16T03:44:34;99266.22;;;13.46;100.00
27984;BME280;15317;50.360;8.726;2022-10-16T03:48:36;99281.25;;;13.42;100.00
27984;BME280;15317;50.360;8.726;2022-10-16T03:52:38;99285.00;;;13.41;100.00
27984;BME280;15317;50.360;8.726;2022-10-16T03:56:42;99261.88;;;13.37;100.00
27984;BME280;15317;50.360;8.726;2022-10-16T04:00:44;99277.56;;;13.35;100.00
27984;BME280;15317;50.360;8.726;2022-10-16T04:04:47;99276.53;;;13.36;100.00
27984;BME280;15317;50.360;8.726;2022-10-16T04:08:50;99285.25;;;13.31;100.00
27984;BME280;15317;50.360;8.726;2022-10-16T04:12:53;99284.41;;;13.31;100.00
27984;BME280;15317;50.360;8.726;2022-10-16T04:16:56;99286.78;;;13.34;100.00
27984;BME280;15317;50.360;8.726;2022-10-16T04:21:02;99291.94;;;13.29;100.00
27984;BME280;15317;50.360;8.726;2022-10-16T04:25:05;99294.00;;;13.27;100.00
27984;BME280;15317;50.360;8.726;2022-10-16T04:29:08;99295.00;;;13.26;100.00
27984;BME280;15317;50.360;8.726;2022-10-16T04:33:10;99297.00;;;13.32;100.00
27984;BME280;15317;50.360;8.726;2022-10-16T04:37:13;99310.84;;;13.30;100.00
27984;BME280;15317;50.360;8.726;2022-10-16T04:41:15;99316.03;;;13.40;100.00
27984;BME280;15317;50.360;8.726;2022-10-16T04:45:19;99301.72;;;13.38;100.00
27984;BME280;15317;50.360;8.726;2022-10-16T04:49:21;99311.25;;;13.42;100.00
27984;BME280;15317;50.360;8.726;2022-10-16T04:53:23;99306.50;;;13.44;100.00
27984;BME280;15317;50.360;8.726;2022-10-16T04:57:25;99304.69;;;13.51;100.00
27984;BME280;15317;50.360;8.726;2022-10-16T05:01:29;99298.53;;;13.57;100.00
27984;BME280;15317;50.360;8.726;2022-10-16T05:05:31;99303.91;;;13.65;100.00
27984;BME280;15317;50.360;8.726;2022-10-16T05:09:33;99312.41;;;13.70;100.00
27984;BME280;15317;50.360;8.726;2022-10-16T05:13:35;99306.19;;;13.76;100.00
27984;BME280;15317;50.360;8.726;2022-10-16T05:17:39;99306.19;;;13.76;100.00
27984;BME280;15317;50.360;8.726;2022-10-16T05:21:41;99293.19;;;13.78;100.00
27984;BME280;15317;50.360;8.726;2022-10-16T05:25:43;99308.19;;;13.82;100.00
27984;BME280;15317;50.360;8.726;2022-10-16T05:29:45;99314.69;;;13.81;100.00
27984;BME280;15317;50.360;8.726;2022-10-16T05:33:49;99310.53;;;13.85;100.00
27984;BME280;15317;50.360;8.726;2022-10-16T05:37:51;99305.91;;;13.86;100.00
27984;BME280;15317;50.360;8.726;2022-10-16T05:41:54;99316.47;;;13.89;100.00
27984;BME280;15317;50.360;8.726;2022-10-16T05:45:56;99321.09;;;13.89;100.00
27984;BME280;15317;50.360;8.726;2022-10-16T05:50:00;99317.34;;;13.90;100.00
27984;BME280;15317;50.360;8.726;2022-10-16T05:54:02;99318.19;;;13.90;100.00
27984;BME280;15317;50.360;8.726;2022-10-16T05:58:04;99328.94;;;13.92;100.00
27984;BME280;15317;50.360;8.726;2022-10-16T06:02:08;99329.75;;;13.92;100.00
27984;BME280;15317;50.360;8.726;2022-10-16T06:06:16;99326.19;;;13.92;100.00
27984;BME280;15317;50.360;8.726;2022-10-16T06:10:18;99338.78;;;13.93;100.00
27984;BME280;15317;50.360;8.726;2022-10-16T06:14:20;99342.59;;;13.92;100.00
27984;BME280;15317;50.360;8.726;2022-10-16T06:18:22;99344.94;;;13.95;100.00
27984;BME280;15317;50.360;8.726;2022-10-16T06:22:25;99356.88;;;13.94;100.00
27984;BME280;15317;50.360;8.726;2022-10-16T06:26:29;99342.19;;;13.95;100.00
27984;BME280;15317;50.360;8.726;2022-10-16T06:30:31;99340.50;;;13.94;100.00
27984;BME280;15317;50.360;8.726;2022-10-16T06:34:33;99349.34;;;13.96;100.00
27984;BME280;15317;50.360;8.726;2022-10-16T06:38:38;99370.84;;;13.99;100.00
27984;BME280;15317;50.360;8.726;2022-10-16T06:42:40;99371.88;;;13.98;100.00
27984;BME280;15317;50.360;8.726;2022-10-16T06:46:42;99375.47;;;13.98;100.00
27984;BME280;15317;50.360;8.726;2022-10-16T06:50:44;99375.25;;;14.00;100.00
27984;BME280;15317;50.360;8.726;2022-10-16T06:54:47;99371.78;;;14.06;100.00
27984;BME280;15317;50.360;8.726;2022-10-16T06:58:50;99362.56;;;14.07;100.00
27984;BME280;15317;50.360;8.726;2022-10-16T07:02:52;99385.06;;;14.09;100.00
27984;BME280;15317;50.360;8.726;2022-10-16T07:06:54;99378.13;;;14.21;100.00
27984;BME280;15317;50.360;8.726;2022-10-16T07:11:03;99395.00;;;14.24;100.00
27984;BME280;15317;50.360;8.726;2022-10-16T07:15:06;99403.94;;;14.18;100.00
27984;BME280;15317;50.360;8.726;2022-10-16T07:19:08;99419.09;;;14.21;100.00
27984;BME280;15317;50.360;8.726;2022-10-16T07:23:12;99426.25;;;14.22;100.00
27984;BME280;15317;50.360;8.726;2022-10-16T07:27:16;99426.75;;;14.26;100.00
27984;BME280;15317;50.360;8.726;2022-10-16T07:31:19;99428.94;;;14.30;100.00
27984;BME280;15317;50.360;8.726;2022-10-16T07:35:21;99439.47;;;14.33;100.00
27984;BME280;15317;50.360;8.726;2022-10-16T07:39:24;99458.81;;;14.32;100.00
27984;BME280;15317;50.360;8.726;2022-10-16T07:43:27;99458.09;;;14.38;100.00
27984;BME280;15317;50.360;8.726;2022-10-16T07:47:29;99466.75;;;14.41;100.00
27984;BME280;15317;50.360;8.726;2022-10-16T07:51:32;99465.72;;;14.42;100.00
27984;BME280;15317;50.360;8.726;2022-10-16T07:55:34;99478.34;;;14.43;100.00
27984;BME280;15317;50.360;8.726;2022-10-16T07:59:37;99479.38;;;14.42;100.00
27984;BME280;15317;50.360;8.726;2022-10-16T08:03:41;99488.94;;;14.46;100.00
27984;BME280;15317;50.360;8.726;2022-10-16T08:07:48;99493.22;;;14.41;100.00
27984;BME280;15317;50.360;8.726;2022-10-16T08:11:50;99500.56;;;14.40;100.00
27984;BME280;15317;50.360;8.726;2022-10-16T08:15:54;99499.28;;;14.51;100.00
27984;BME280;15317;50.360;8.726;2022-10-16T08:19:56;99510.91;;;14.53;100.00
27984;BME280;15317;50.360;8.726;2022-10-16T08:23:58;99511.38;;;14.56;100.00
27984;BME280;15317;50.360;8.726;2022-10-16T08:28:03;99519.50;;;14.65;100.00
27984;BME280;15317;50.360;8.726;2022-10-16T08:32:06;99522.53;;;14.70;100.00
27984;BME280;15317;50.360;8.726;2022-10-16T08:36:09;99530.41;;;14.87;100.00
27984;BME280;15317;50.360;8.726;2022-10-16T08:40:18;99539.41;;;14.88;100.00
27984;BME280;15317;50.360;8.726;2022-10-16T08:44:44;99549.41;;;14.81;100.00
27984;BME280;15317;50.360;8.726;2022-10-16T08:48:54;99546.31;;;14.84;100.00
27984;BME280;15317;50.360;8.726;2022-10-16T08:52:57;99559.31;;;14.82;100.00
27984;BME280;15317;50.360;8.726;2022-10-16T08:57:08;99568.47;;;14.89;100.00
27984;BME280;15317;50.360;8.726;2022-10-16T09:01:13;99572.91;;;14.90;100.00
27984;BME280;15317;50.360;8.726;2022-10-16T09:05:27;99565.75;;;14.89;100.00
27984;BME280;15317;50.360;8.726;2022-10-16T09:09:48;99567.53;;;14.96;100.00
27984;BME280;15317;50.360;8.726;2022-10-16T09:14:03;99566.53;;;15.12;100.00
27984;BME280;15317;50.360;8.726;2022-10-16T09:18:12;99573.81;;;15.20;100.00
27984;BME280;15317;50.360;8.726;2022-10-16T09:22:27;99586.84;;;15.32;100.00
27984;BME280;15317;50.360;8.726;2022-10-16T09:26:29;99589.94;;;15.44;100.00
27984;BME280;15317;50.360;8.726;2022-10-16T09:30:31;99594.78;;;15.42;100.00
27984;BME280;15317;50.360;8.726;2022-10-16T09:34:36;99597.06;;;15.53;100.00
27984;BME280;15317;50.360;8.726;2022-10-16T09:38:42;99595.47;;;15.59;100.00
27984;BME280;15317;50.360;8.726;2022-10-16T09:42:44;99609.31;;;15.72;100.00
27984;BME280;15317;50.360;8.726;2022-10-16T09:46:46;99603.94;;;15.78;100.00
27984;BME280;15317;50.360;8.726;2022-10-16T09:50:55;99613.84;;;15.79;100.00
27984;BME280;15317;50.360;8.726;2022-10-16T09:55:00;99617.06;;;15.83;100.00
27984;BME280;15317;50.360;8.726;2022-10-16T09:59:11;99626.13;;;15.84;100.00
27984;BME280;15317;50.360;8.726;2022-10-16T10:07:41;99641.63;;;15.76;100.00
27984;BME280;15317;50.360;8.726;2022-10-16T10:11:48;99632.84;;;15.66;100.00
27984;BME280;15317;50.360;8.726;2022-10-16T10:15:51;99628.13;;;15.75;100.00
27984;BME280;15317;50.360;8.726;2022-10-16T10:19:54;99634.56;;;15.82;100.00
27984;BME280;15317;50.360;8.726;2022-10-16T10:23:57;99625.47;;;15.96;100.00
27984;BME280;15317;50.360;8.726;2022-10-16T10:28:13;99628.06;;;16.04;100.00
27984;BME280;15317;50.360;8.726;2022-10-16T10:32:23;99620.94;;;16.25;100.00
27984;BME280;15317;50.360;8.726;2022-10-16T10:36:32;99632.28;;;16.36;100.00
27984;BME280;15317;50.360;8.726;2022-10-16T10:40:47;99623.13;;;16.29;100.00
27984;BME280;15317;50.360;8.726;2022-10-16T10:45:11;99636.84;;;16.29;100.00
27984;BME280;15317;50.360;8.726;2022-10-16T10:49:26;99630.84;;;16.40;100.00
27984;BME280;15317;50.360;8.726;2022-10-16T10:53:40;99625.06;;;16.50;100.00
27984;BME280;15317;50.360;8.726;2022-10-16T10:57:57;99624.72;;;16.59;100.00
27984;BME280;15317;50.360;8.726;2022-10-16T11:02:12;99629.13;;;16.96;100.00
27984;BME280;15317;50.360;8.726;2022-10-16T11:06:18;99617.56;;;17.29;100.00
27984;BME280;15317;50.360;8.726;2022-10-16T11:10:27;99614.09;;;17.48;100.00
27984;BME280;15317;50.360;8.726;2022-10-16T11:14:34;99609.25;;;17.50;100.00
27984;BME280;15317;50.360;8.726;2022-10-16T11:18:46;99600.28;;;17.63;100.00
27984;BME280;15317;50.360;8.726;2022-10-16T11:22:54;99600.19;;;17.84;100.00
27984;BME280;15317;50.360;8.726;2022-10-16T11:27:08;99595.41;;;17.99;100.00
27984;BME280;15317;50.360;8.726;2022-10-16T11:31:16;99605.66;;;18.32;100.00
27984;BME280;15317;50.360;8.726;2022-10-16T11:35:25;99615.72;;;18.66;100.00
27984;BME280;15317;50.360;8.726;2022-10-16T11:39:34;99616.41;;;19.07;100.00
27984;BME280;15317;50.360;8.726;2022-10-16T11:43:38;99608.56;;;19.17;100.00
27984;BME280;15317;50.360;8.726;2022-10-16T11:47:44;99607.72;;;19.10;100.00
27984;BME280;15317;50.360;8.726;2022-10-16T11:51:57;99602.63;;;18.94;100.00
27984;BME280;15317;50.360;8.726;2022-10-16T11:56:01;99596.28;;;19.13;100.00
27984;BME280;15317;50.360;8.726;2022-10-16T12:00:07;99599.03;;;18.87;100.00
27984;BME280;15317;50.360;8.726;2022-10-16T12:04:17;99604.31;;;18.62;100.00
27984;BME280;15317;50.360;8.726;2022-10-16T12:08:23;99605.34;;;18.61;100.00
27984;BME280;15317;50.360;8.726;2022-10-16T12:12:26;99610.22;;;18.66;100.00
27984;BME280;15317;50.360;8.726;2022-10-16T12:16:28;99611.28;;;18.78;100.00
27984;BME280;15317;50.360;8.726;2022-10-16T12:20:32;99617.47;;;19.06;100.00
27984;BME280;15317;50.360;8.726;2022-10-16T12:24:41;99617.03;;;19.09;100.00
27984;BME280;15317;50.360;8.726;2022-10-16T12:28:43;99622.13;;;19.12;100.00
27984;BME280;15317;50.360;8.726;2022-10-16T12:32:53;99628.03;;;18.76;100.00
27984;BME280;15317;50.360;8.726;2022-10-16T12:36:56;99621.56;;;18.49;100.00
27984;BME280;15317;50.360;8.726;2022-10-16T12:41:10;99619.91;;;18.48;100.00
27984;BME280;15317;50.360;8.726;2022-10-16T12:45:26;99615.44;;;18.47;100.00
27984;BME280;15317;50.360;8.726;2022-10-16T12:49:31;99620.09;;;18.40;100.00
27984;BME280;15317;50.360;8.726;2022-10-16T12:53:34;99624.94;;;18.38;100.00
27984;BME280;15317;50.360;8.726;2022-10-16T12:57:45;99627.03;;;18.36;100.00
27984;BME280;15317;50.360;8.726;2022-10-16T13:02:06;99644.34;;;18.30;100.00
27984;BME280;15317;50.360;8.726;2022-10-16T13:06:20;99646.66;;;18.20;100.00
27984;BME280;15317;50.360;8.726;2022-10-16T13:10:28;99656.59;;;18.14;100.00
27984;BME280;15317;50.360;8.726;2022-10-16T13:19:20;99661.72;;;18.31;100.00
27984;BME280;15317;50.360;8.726;2022-10-16T13:23:29;99660.91;;;18.50;100.00
27984;BME280;15317;50.360;8.726;2022-10-16T13:27:40;99646.63;;;18.68;100.00
27984;BME280;15317;50.360;8.726;2022-10-16T13:31:48;99636.50;;;18.88;100.00
27984;BME280;15317;50.360;8.726;2022-10-16T13:35:52;99654.28;;;18.85;100.00
27984;BME280;15317;50.360;8.726;2022-10-16T13:40:04;99643.22;;;18.66;100.00
27984;BME280;15317;50.360;8.726;2022-10-16T13:44:15;99635.38;;;18.56;100.00
27984;BME280;15317;50.360;8.726;2022-10-16T13:48:21;99638.97;;;18.57;100.00
27984;BME280;15317;50.360;8.726;2022-10-16T13:52:23;99645.88;;;18.39;100.00
27984;BME280;15317;50.360;8.726;2022-10-16T13:56:27;99654.53;;;18.36;100.00
27984;BME280;15317;50.360;8.726;2022-10-16T14:00:29;99652.44;;;18.38;100.00
27984;BME280;15317;50.360;8.726;2022-10-16T14:04:38;99651.97;;;18.28;100.00
27984;BME280;15317;50.360;8.726;2022-10-16T14:08:43;99659.97;;;18.23;100.00
27984;BME280;15317;50.360;8.726;2022-10-16T14:12:54;99654.44;;;18.10;100.00
27984;BME280;15317;50.360;8.726;2022-10-16T14:16:56;99642.53;;;18.03;100.00
27984;BME280;15317;50.360;8.726;2022-10-16T14:21:04;99643.38;;;17.97;100.00
27984;BME280;15317;50.360;8.726;2022-10-16T14:25:21;99647.59;;;17.93;100.00
27984;BME280;15317;50.360;8.726;2022-10-16T14:29:28;99639.13;;;17.88;100.00
27984;BME280;15317;50.360;8.726;2022-10-16T14:33:33;99642.91;;;17.87;100.00
27984;BME280;15317;50.360;8.726;2022-10-16T14:37:37;99645.44;;;17.88;100.00
27984;BME280;15317;50.360;8.726;2022-10-16T14:41:42;99646.28;;;17.89;100.00
27984;BME280;15317;50.360;8.726;2022-10-16T14:45:50;99652.03;;;17.94;100.00
27984;BME280;15317;50.360;8.726;2022-10-16T14:49:54;99656.06;;;17.98;100.00
27984;BME280;15317;50.360;8.726;2022-10-16T14:54:00;99655.25;;;18.04;100.00
27984;BME280;15317;50.360;8.726;2022-10-16T14:58:03;99659.50;;;18.06;100.00
27984;BME280;15317;50.360;8.726;2022-10-16T15:02:19;99647.84;;;18.04;100.00
27984;BME280;15317;50.360;8.726;2022-10-16T15:06:22;99657.56;;;18.00;100.00
27984;BME280;15317;50.360;8.726;2022-10-16T15:10:28;99655.00;;;17.99;100.00
27984;BME280;15317;50.360;8.726;2022-10-16T15:14:32;99647.81;;;17.98;100.00
27984;BME280;15317;50.360;8.726;2022-10-16T15:18:34;99652.28;;;17.99;100.00
27984;BME280;15317;50.360;8.726;2022-10-16T15:22:36;99664.53;;;18.03;100.00
27984;BME280;15317;50.360;8.726;2022-10-16T15:26:40;99653.13;;;17.99;100.00
27984;BME280;15317;50.360;8.726;2022-10-16T15:30:42;99667.06;;;17.98;100.00
27984;BME280;15317;50.360;8.726;2022-10-16T15:34:45;99666.97;;;17.85;100.00
27984;BME280;15317;50.360;8.726;2022-10-16T15:38:47;99669.84;;;17.70;100.00
27984;BME280;15317;50.360;8.726;2022-10-16T15:42:51;99669.28;;;17.53;100.00
27984;BME280;15317;50.360;8.726;2022-10-16T15:46:54;99678.91;;;17.43;100.00
27984;BME280;15317;50.360;8.726;2022-10-16T15:50:56;99690.16;;;17.26;100.00
27984;BME280;15317;50.360;8.726;2022-10-16T15:54:59;99698.75;;;17.17;100.00
27984;BME280;15317;50.360;8.726;2022-10-16T15:59:03;99702.66;;;17.08;100.00
27984;BME280;15317;50.360;8.726;2022-10-16T16:03:05;99704.31;;;17.02;100.00
27984;BME280;15317;50.360;8.726;2022-10-16T16:07:07;99698.75;;;16.95;100.00
27984;BME280;15317;50.360;8.726;2022-10-16T16:11:11;99700.41;;;16.90;100.00
27984;BME280;15317;50.360;8.726;2022-10-16T16:15:15;99689.34;;;16.83;100.00
27984;BME280;15317;50.360;8.726;2022-10-16T16:19:17;99688.25;;;16.78;100.00
27984;BME280;15317;50.360;8.726;2022-10-16T16:23:21;99691.78;;;16.72;100.00
27984;BME280;15317;50.360;8.726;2022-10-16T16:27:24;99698.84;;;16.66;100.00
27984;BME280;15317;50.360;8.726;2022-10-16T16:31:29;99695.84;;;16.61;100.00
27984;BME280;15317;50.360;8.726;2022-10-16T16:35:31;99694.91;;;16.54;100.00
27984;BME280;15317;50.360;8.726;2022-10-16T16:39:33;99696.34;;;16.50;100.00
27984;BME280;15317;50.360;8.726;2022-10-16T16:43:35;99696.72;;;16.47;100.00
27984;BME280;15317;50.360;8.726;2022-10-16T16:47:39;99692.84;;;16.41;100.00
27984;BME280;15317;50.360;8.726;2022-10-16T16:51:41;99687.97;;;16.37;100.00
27984;BME280;15317;50.360;8.726;2022-10-16T16:55:43;99692.09;;;16.33;100.00
27984;BME280;15317;50.360;8.726;2022-10-16T16:59:45;99689.47;;;16.25;100.00
27984;BME280;15317;50.360;8.726;2022-10-16T17:03:50;99703.75;;;16.20;100.00
27984;BME280;15317;50.360;8.726;2022-10-16T17:07:52;99700.75;;;16.15;100.00
27984;BME280;15317;50.360;8.726;2022-10-16T17:11:54;99705.09;;;16.09;100.00
27984;BME280;15317;50.360;8.726;2022-10-16T17:15:57;99708.59;;;16.03;100.00
27984;BME280;15317;50.360;8.726;2022-10-16T17:20:00;99714.81;;;15.97;100.00
27984;BME280;15317;50.360;8.726;2022-10-16T17:24:02;99716.59;;;15.90;100.00
27984;BME280;15317;50.360;8.726;2022-10-16T17:28:05;99716.31;;;15.85;100.00
27984;BME280;15317;50.360;8.726;2022-10-16T17:32:08;99713.31;;;15.80;100.00
27984;BME280;15317;50.360;8.726;2022-10-16T17:36:12;99728.44;;;15.76;100.00
27984;BME280;15317;50.360;8.726;2022-10-16T17:40:14;99723.31;;;15.73;100.00
27984;BME280;15317;50.360;8.726;2022-10-16T17:44:17;99731.81;;;15.78;100.00
27984;BME280;15317;50.360;8.726;2022-10-16T17:48:22;99732.19;;;15.75;100.00
27984;BME280;15317;50.360;8.726;2022-10-16T17:52:25;99732.19;;;15.75;100.00
27984;BME280;15317;50.360;8.726;2022-10-16T17:56:28;99729.47;;;15.75;100.00
27984;BME280;15317;50.360;8.726;2022-10-16T18:00:31;99733.41;;;15.72;100.00
27984;BME280;15317;50.360;8.726;2022-10-16T18:04:33;99730.56;;;15.66;100.00
27984;BME280;15317;50.360;8.726;2022-10-16T18:08:36;99736.63;;;15.61;100.00
27984;BME280;15317;50.360;8.726;2022-10-16T18:12:39;99744.50;;;15.56;100.00
27984;BME280;15317;50.360;8.726;2022-10-16T18:16:42;99741.31;;;15.53;100.00
27984;BME280;15317;50.360;8.726;2022-10-16T18:20:44;99749.84;;;15.50;100.00
27984;BME280;15317;50.360;8.726;2022-10-16T18:24:47;99754.34;;;15.42;100.00
27984;BME280;15317;50.360;8.726;2022-10-16T18:28:51;99762.28;;;15.37;100.00
27984;BME280;15317;50.360;8.726;2022-10-16T18:32:53;99767.47;;;15.32;100.00
27984;BME280;15317;50.360;8.726;2022-10-16T18:36:55;99760.84;;;15.27;100.00
27984;BME280;15317;50.360;8.726;2022-10-16T18:40:59;99762.78;;;15.18;100.00
27984;BME280;15317;50.360;8.726;2022-10-16T18:45:02;99765.22;;;15.13;100.00
27984;BME280;15317;50.360;8.726;2022-10-16T18:49:05;99761.47;;;15.14;100.00
27984;BME280;15317;50.360;8.726;2022-10-16T18:53:07;99760.50;;;15.07;100.00
27984;BME280;15317;50.360;8.726;2022-10-16T18:57:10;99769.03;;;15.04;100.00
27984;BME280;15317;50.360;8.726;2022-10-16T19:01:14;99774.91;;;15.01;100.00
27984;BME280;15317;50.360;8.726;2022-10-16T19:05:16;99763.28;;;14.99;100.00
27984;BME280;15317;50.360;8.726;2022-10-16T19:09:20;99775.06;;;14.99;100.00
27984;BME280;15317;50.360;8.726;2022-10-16T19:13:23;99765.88;;;14.92;100.00
27984;BME280;15317;50.360;8.726;2022-10-16T19:17:25;99772.06;;;14.86;100.00
27984;BME280;15317;50.360;8.726;2022-10-16T19:21:29;99774.31;;;14.83;100.00
27984;BME280;15317;50.360;8.726;2022-10-16T19:25:35;99769.56;;;14.77;100.00
27984;BME280;15317;50.360;8.726;2022-10-16T19:29:38;99775.75;;;14.71;100.00
27984;BME280;15317;50.360;8.726;2022-10-16T19:33:41;99768.94;;;14.67;100.00
27984;BME280;15317;50.360;8.726;2022-10-16T19:37:43;99774.94;;;14.62;100.00
27984;BME280;15317;50.360;8.726;2022-10-16T19:41:46;99782.66;;;14.58;100.00
27984;BME280;15317;50.360;8.726;2022-10-16T19:45:49;99789.31;;;14.56;100.00
27984;BME280;15317;50.360;8.726;2022-10-16T19:49:51;99794.44;;;14.59;100.00
27984;BME280;15317;50.360;8.726;2022-10-16T19:53:56;99798.69;;;14.61;100.00
27984;BME280;15317;50.360;8.726;2022-10-16T19:57:58;99801.25;;;14.63;100.00
27984;BME280;15317;50.360;8.726;2022-10-16T20:02:02;99801.06;;;14.65;100.00
27984;BME280;15317;50.360;8.726;2022-10-16T20:06:05;99810.13;;;14.65;100.00
27984;BME280;15317;50.360;8.726;2022-10-16T20:10:08;99814.75;;;14.65;100.00
27984;BME280;15317;50.360;8.726;2022-10-16T20:14:10;99823.63;;;14.67;100.00
27984;BME280;15317;50.360;8.726;2022-10-16T20:18:14;99806.69;;;14.71;100.00
27984;BME280;15317;50.360;8.726;2022-10-16T20:22:17;99811.63;;;14.68;100.00
27984;BME280;15317;50.360;8.726;2022-10-16T20:26:21;99811.84;;;14.66;100.00
27984;BME280;15317;50.360;8.726;2022-10-16T20:30:23;99809.97;;;14.67;100.00
27984;BME280;15317;50.360;8.726;2022-10-16T20:34:27;99820.69;;;14.68;100.00
27984;BME280;15317;50.360;8.726;2022-10-16T20:38:29;99811.28;;;14.71;100.00
27984;BME280;15317;50.360;8.726;2022-10-16T20:42:31;99815.75;;;14.72;100.00
27984;BME280;15317;50.360;8.726;2022-10-16T20:46:33;99819.50;;;14.71;100.00
27984;BME280;15317;50.360;8.726;2022-10-16T20:50:38;99818.81;;;14.69;100.00
27984;BME280;15317;50.360;8.726;2022-10-16T20:54:43;99822.94;;;14.65;100.00
27984;BME280;15317;50.360;8.726;2022-10-16T20:58:45;99816.97;;;14.61;100.00
27984;BME280;15317;50.360;8.726;2022-10-16T21:02:48;99830.16;;;14.57;100.00
27984;BME280;15317;50.360;8.726;2022-10-16T21:06:52;99825.03;;;14.54;100.00
27984;BME280;15317;50.360;8.726;2022-10-16T21:10:54;99828.31;;;14.50;100.00
27984;BME280;15317;50.360;8.726;2022-10-16T21:14:56;99831.56;;;14.45;100.00
27984;BME280;15317;50.360;8.726;2022-10-16T21:18:59;99824.75;;;14.41;100.00
27984;BME280;15317;50.360;8.726;2022-10-16T21:23:02;99828.84;;;14.37;100.00
27984;BME280;15317;50.360;8.726;2022-10-16T21:27:05;99826.63;;;14.33;100.00
27984;BME280;15317;50.360;8.726;2022-10-16T21:31:11;99824.25;;;14.30;100.00